createdAt,value
2023-03-17T00:00:53.972Z,8.00
2023-03-17T00:03:29.415Z,7.79
2023-03-17T00:06:01.452Z,8.05
2023-03-17T00:08:34.274Z,8.17
2023-03-17T00:11:04.477Z,7.88
2023-03-17T00:13:34.110Z,7.89
2023-03-17T00:16:07.572Z,7.88
2023-03-17T00:18:40.312Z,8.08
2023-03-17T00:21:14.847Z,7.98
2023-03-17T00:23:46.373Z,8.00
2023-03-17T00:26:16.212Z,8.00
2023-03-17T00:28:46.213Z,8.05
2023-03-17T00:31:18.938Z,7.82
2023-03-17T00:33:54.123Z,8.02
2023-03-17T00:36:26.599Z,7.89
2023-03-17T00:38:57.367Z,7.97
2023-03-17T00:41:29.585Z,8.07
2023-03-17T00:43:59.359Z,8.04
2023-03-17T00:46:35.984Z,7.94
2023-03-17T00:51:46.008Z,8.08
2023-03-17T00:54:19.500Z,8.01
2023-03-17T00:56:50.930Z,8.05
2023-03-17T00:59:29.824Z,8.12
2023-03-17T01:02:00.412Z,7.94
2023-03-17T01:04:34.010Z,8.07
2023-03-17T01:07:04.204Z,7.90
2023-03-17T01:09:35.021Z,8.07
2023-03-17T01:12:04.705Z,8.04
2023-03-17T01:14:37.887Z,8.00
2023-03-17T01:17:12.879Z,8.03
2023-03-17T01:19:45.461Z,8.17
2023-03-17T01:22:15.502Z,8.27
2023-03-17T01:24:45.144Z,8.10
2023-03-17T01:27:16.117Z,8.15
2023-03-17T01:29:46.222Z,8.25
2023-03-17T01:32:16.360Z,8.20
2023-03-17T01:34:48.643Z,8.29
2023-03-17T01:37:18.277Z,8.32
2023-03-17T01:39:47.900Z,8.46
2023-03-17T01:42:17.706Z,8.59
2023-03-17T01:45:03.113Z,8.45
2023-03-17T01:47:33.239Z,8.62
2023-03-17T01:50:09.934Z,8.64
2023-03-17T01:52:41.577Z,8.79
2023-03-17T01:55:14.864Z,8.75
2023-03-17T01:57:50.855Z,8.51
2023-03-17T02:00:23.605Z,8.63
2023-03-17T02:02:57.444Z,8.75
2023-03-17T02:05:33.397Z,8.48
2023-03-17T02:08:03.224Z,8.37
2023-03-17T02:10:33.596Z,8.33
2023-03-17T02:13:05.885Z,8.20
2023-03-17T02:15:40.796Z,8.50
2023-03-17T02:18:11.705Z,8.42
2023-03-17T02:21:16.878Z,8.27
2023-03-17T02:23:49.905Z,8.41
2023-03-17T02:26:21.071Z,8.38
2023-03-17T02:28:50.720Z,8.41
2023-03-17T02:31:21.969Z,8.38
2023-03-17T02:33:54.299Z,8.41
2023-03-17T02:36:24.725Z,8.38
2023-03-17T02:38:57.602Z,8.41
2023-03-17T02:41:27.528Z,8.53
2023-03-17T02:43:57.179Z,8.66
2023-03-17T02:46:27.213Z,8.54
2023-03-17T02:48:57.793Z,8.62
2023-03-17T02:51:27.433Z,8.65
2023-03-17T02:53:59.710Z,8.67
2023-03-17T02:56:29.505Z,8.54
2023-03-17T02:58:59.132Z,8.69
2023-03-17T03:01:29.562Z,8.64
2023-03-17T03:03:59.364Z,8.54
2023-03-17T03:06:29.116Z,8.23
2023-03-17T03:09:01.427Z,8.24
2023-03-17T03:11:31.066Z,8.35
2023-03-17T03:14:00.701Z,8.23
2023-03-17T03:16:30.581Z,8.35
2023-03-17T03:19:00.226Z,8.31
2023-03-17T03:21:31.661Z,8.17
2023-03-17T03:24:04.113Z,8.15
2023-03-17T03:26:33.882Z,8.11
2023-03-17T03:29:03.580Z,8.24
2023-03-17T03:31:33.217Z,7.93
2023-03-17T03:34:02.847Z,8.34
2023-03-17T03:36:32.498Z,8.42
2023-03-17T03:39:04.713Z,8.51
2023-03-17T03:41:34.463Z,8.44
2023-03-17T03:44:04.143Z,8.58
2023-03-17T03:46:33.933Z,8.40
2023-03-17T03:49:03.651Z,8.45
2023-03-17T03:51:33.340Z,8.50
2023-03-17T03:54:06.346Z,8.39
2023-03-17T03:56:36.050Z,8.52
2023-03-17T03:59:06.228Z,8.51
2023-03-17T04:01:36.048Z,8.59
2023-03-17T04:04:05.828Z,8.60
2023-03-17T04:06:35.452Z,8.54
2023-03-17T04:09:09.286Z,8.58
2023-03-17T04:11:38.942Z,8.57
2023-03-17T04:14:09.119Z,8.36
2023-03-17T04:16:39.043Z,8.56
2023-03-17T04:19:09.898Z,8.46
2023-03-17T04:21:39.972Z,8.41
2023-03-17T04:24:12.657Z,8.25
2023-03-17T04:26:42.358Z,8.37
2023-03-17T04:29:15.696Z,8.23
2023-03-17T04:31:45.381Z,8.45
2023-03-17T04:34:18.744Z,8.37
2023-03-17T04:36:49.956Z,8.51
2023-03-17T04:39:22.301Z,8.39
2023-03-17T04:41:51.966Z,8.55
2023-03-17T04:44:21.626Z,8.53
2023-03-17T04:46:51.667Z,8.39
2023-03-17T04:49:21.981Z,8.33
2023-03-17T04:51:51.629Z,8.38
2023-03-17T04:54:24.130Z,8.45
2023-03-17T04:56:53.925Z,8.45
2023-03-17T04:59:23.593Z,8.45
2023-03-17T05:01:54.018Z,8.37
2023-03-17T05:04:31.070Z,8.27
2023-03-17T05:07:01.282Z,8.30
2023-03-17T05:09:33.599Z,8.24
2023-03-17T05:12:03.236Z,8.25
2023-03-17T05:14:33.233Z,8.24
2023-03-17T05:17:02.857Z,7.86
2023-03-17T05:19:32.473Z,8.22
2023-03-17T05:22:02.177Z,8.11
2023-03-17T05:24:34.448Z,8.22
2023-03-17T05:27:04.056Z,8.15
2023-03-17T05:29:33.807Z,8.18
2023-03-17T05:32:03.443Z,8.12
2023-03-17T05:34:33.609Z,8.22
2023-03-17T05:37:03.466Z,8.07
2023-03-17T05:39:36.031Z,8.24
2023-03-17T05:42:06.277Z,8.21
2023-03-17T05:44:36.249Z,8.24
2023-03-17T05:47:05.928Z,8.40
2023-03-17T05:49:35.763Z,8.42
2023-03-17T05:52:05.715Z,8.28
2023-03-17T05:54:38.203Z,8.56
2023-03-17T05:57:07.884Z,8.56
2023-03-17T05:59:37.570Z,8.51
2023-03-17T06:02:07.303Z,8.45
2023-03-17T06:04:37.019Z,8.56
2023-03-17T06:07:07.844Z,8.33
2023-03-17T06:09:40.141Z,8.29
2023-03-17T06:12:11.052Z,8.35
2023-03-17T06:14:40.778Z,8.33
2023-03-17T06:17:12.563Z,8.60
2023-03-17T06:19:42.776Z,8.28
2023-03-17T06:22:12.577Z,8.68
2023-03-17T06:24:44.794Z,8.78
2023-03-17T06:27:14.645Z,8.87
2023-03-17T06:29:44.257Z,8.96
2023-03-17T06:32:20.725Z,9.16
2023-03-17T06:34:51.909Z,9.04
2023-03-17T06:37:21.517Z,9.24
2023-03-17T06:39:53.900Z,9.17
2023-03-17T06:42:23.616Z,9.25
2023-03-17T06:44:53.970Z,9.18
2023-03-17T06:47:25.974Z,9.26
2023-03-17T06:49:56.329Z,9.02
2023-03-17T06:52:26.582Z,9.21
2023-03-17T06:54:58.785Z,9.41
2023-03-17T06:57:28.404Z,9.17
2023-03-17T06:59:58.037Z,9.30
2023-03-17T07:02:28.098Z,9.46
2023-03-17T07:04:58.270Z,9.69
2023-03-17T07:07:28.093Z,9.56
2023-03-17T07:10:00.376Z,9.70
2023-03-17T07:12:30.015Z,9.84
2023-03-17T07:15:00.174Z,9.67
2023-03-17T07:17:30.192Z,9.67
2023-03-17T07:20:00.203Z,9.78
2023-03-17T07:22:30.294Z,9.66
2023-03-17T07:25:02.620Z,9.90
2023-03-17T07:27:32.282Z,9.98
2023-03-17T07:30:04.437Z,9.88
2023-03-17T07:32:35.565Z,9.88
2023-03-17T07:35:05.272Z,10.11
2023-03-17T07:37:35.009Z,10.23
2023-03-17T07:40:09.283Z,10.33
2023-03-17T07:42:39.116Z,10.44
2023-03-17T07:45:10.320Z,10.32
2023-03-17T07:47:41.688Z,10.00
2023-03-17T07:50:12.441Z,10.19
2023-03-17T07:52:42.246Z,10.45
2023-03-17T07:55:15.990Z,10.53
2023-03-17T07:57:46.274Z,10.74
2023-03-17T08:00:17.651Z,10.59
2023-03-17T08:02:59.600Z,10.94
2023-03-17T08:05:37.082Z,10.88
2023-03-17T08:08:07.616Z,11.24
2023-03-17T08:10:39.904Z,11.34
2023-03-17T08:13:09.598Z,10.86
2023-03-17T08:15:39.484Z,10.70
2023-03-17T08:18:09.625Z,11.07
2023-03-17T08:20:39.452Z,10.98
2023-03-17T08:23:09.099Z,10.98
2023-03-17T08:25:41.423Z,11.35
2023-03-17T08:28:11.124Z,11.17
2023-03-17T08:30:41.837Z,11.43
2023-03-17T08:33:11.773Z,11.51
2023-03-17T08:35:43.752Z,11.46
2023-03-17T08:38:13.938Z,11.38
2023-03-17T08:40:46.194Z,11.23
2023-03-17T08:43:16.524Z,11.68
2023-03-17T08:45:46.245Z,11.48
2023-03-17T08:48:15.968Z,11.84
2023-03-17T08:50:46.065Z,12.13
2023-03-17T08:53:15.721Z,12.17
2023-03-17T08:55:47.942Z,12.26
2023-03-17T08:58:19.772Z,12.26
2023-03-17T09:00:50.126Z,12.22
2023-03-17T09:03:20.838Z,12.22
2023-03-17T09:05:51.590Z,12.28
2023-03-17T09:08:21.301Z,12.15
2023-03-17T09:10:54.376Z,12.41
2023-03-17T09:13:24.411Z,12.73
2023-03-17T09:15:54.384Z,12.77
2023-03-17T09:18:24.038Z,12.54
2023-03-17T09:20:53.716Z,12.47
2023-03-17T09:23:23.608Z,12.22
2023-03-17T09:25:55.978Z,12.45
2023-03-17T09:28:26.298Z,12.48
2023-03-17T09:31:01.410Z,12.61
2023-03-17T09:33:32.093Z,12.66
2023-03-17T09:36:02.217Z,12.90
2023-03-17T09:38:31.917Z,12.93
2023-03-17T09:41:26.201Z,12.87
2023-03-17T09:44:03.459Z,12.82
2023-03-17T09:46:47.283Z,13.04
2023-03-17T09:49:22.870Z,13.33
2023-03-17T09:51:53.309Z,13.22
2023-03-17T09:54:29.316Z,13.49
2023-03-17T09:57:09.399Z,13.42
2023-03-17T09:59:43.891Z,13.76
2023-03-17T10:02:21.329Z,14.01
2023-03-17T10:04:51.907Z,14.21
2023-03-17T10:07:27.274Z,14.15
2023-03-17T10:10:03.769Z,14.11
2023-03-17T10:12:46.250Z,14.26
2023-03-17T10:15:24.209Z,14.37
2023-03-17T10:17:54.751Z,14.50
2023-03-17T10:20:30.192Z,14.57
2023-03-17T10:23:04.304Z,14.50
2023-03-17T10:25:36.679Z,14.42
2023-03-17T10:28:15.093Z,14.53
2023-03-17T10:30:44.908Z,14.58
2023-03-17T10:33:14.918Z,14.52
2023-03-17T10:35:45.109Z,14.01
2023-03-17T10:38:18.999Z,14.85
2023-03-17T10:40:57.161Z,14.98
2023-03-17T10:43:32.377Z,15.12
2023-03-17T10:46:04.391Z,15.12
2023-03-17T10:48:39.149Z,15.13
2023-03-17T10:51:11.425Z,15.17
2023-03-17T10:53:43.455Z,15.29
2023-03-17T10:56:20.911Z,15.48
2023-03-17T10:58:55.582Z,15.50
2023-03-17T11:01:31.278Z,15.53
2023-03-17T11:04:02.831Z,15.60
2023-03-17T11:06:36.559Z,15.72
2023-03-17T11:09:12.552Z,15.73
2023-03-17T11:11:47.504Z,15.79
2023-03-17T11:14:22.405Z,15.90
2023-03-17T11:16:56.924Z,15.93
2023-03-17T11:19:41.195Z,16.06
2023-03-17T11:22:15.912Z,15.96
2023-03-17T11:24:59.766Z,16.24
2023-03-17T11:27:34.353Z,16.32
2023-03-17T11:30:28.002Z,16.31
2023-03-17T11:33:01.748Z,16.33
2023-03-17T11:35:53.245Z,16.42
2023-03-17T11:38:26.212Z,16.60
2023-03-17T11:41:35.797Z,16.75
2023-03-17T11:44:55.249Z,16.73
2023-03-17T11:47:42.887Z,16.85
2023-03-17T11:50:24.895Z,16.79
2023-03-17T11:53:13.270Z,16.78
2023-03-17T11:55:48.487Z,16.71
2023-03-17T11:58:28.742Z,16.74
2023-03-17T12:01:00.931Z,16.79
2023-03-17T12:03:40.449Z,16.79
2023-03-17T12:06:19.796Z,16.81
2023-03-17T12:08:53.553Z,16.77
2023-03-17T12:11:30.158Z,16.86
2023-03-17T12:14:04.917Z,16.90
2023-03-17T12:16:40.694Z,17.11
2023-03-17T12:19:20.703Z,17.09
2023-03-17T12:21:55.745Z,17.18
2023-03-17T12:24:34.486Z,17.38
2023-03-17T12:27:08.631Z,17.56
2023-03-17T12:29:47.482Z,17.71
2023-03-17T12:32:23.739Z,17.55
2023-03-17T12:34:59.733Z,17.49
2023-03-17T12:37:30.914Z,17.66
2023-03-17T12:40:07.208Z,17.63
2023-03-17T12:42:45.731Z,17.68
2023-03-17T12:45:37.327Z,17.71
2023-03-17T12:48:24.516Z,17.69
2023-03-17T12:51:22.734Z,17.68
2023-03-17T12:53:53.123Z,17.54
2023-03-17T12:56:27.447Z,17.24
2023-03-17T12:59:02.968Z,17.59
2023-03-17T13:01:36.098Z,17.61
2023-03-17T13:04:19.590Z,17.89
2023-03-17T13:07:02.806Z,17.95
2023-03-17T13:09:45.405Z,17.90
2023-03-17T13:12:53.730Z,18.25
2023-03-17T13:15:26.810Z,18.01
2023-03-17T13:18:33.494Z,18.31
2023-03-17T13:21:15.377Z,18.08
2023-03-17T13:23:49.758Z,18.22
2023-03-17T13:26:22.466Z,18.34
2023-03-17T13:28:53.734Z,18.42
2023-03-17T13:31:38.508Z,18.21
2023-03-17T13:34:19.529Z,18.21
2023-03-17T13:37:05.576Z,18.14
2023-03-17T13:40:00.028Z,18.21
2023-03-17T13:42:46.910Z,18.09
2023-03-17T13:45:28.619Z,18.25
2023-03-17T13:48:34.737Z,18.37
2023-03-17T13:51:15.303Z,18.20
2023-03-17T13:53:49.773Z,18.41
2023-03-17T13:56:27.970Z,18.39
2023-03-17T13:59:10.458Z,18.21
2023-03-17T14:01:44.040Z,18.27
2023-03-17T14:04:24.156Z,18.41
2023-03-17T14:06:57.283Z,18.33
2023-03-17T14:09:37.844Z,18.40
2023-03-17T14:12:16.065Z,18.51
2023-03-17T14:14:55.457Z,18.44
2023-03-17T14:17:28.474Z,18.29
2023-03-17T14:20:24.214Z,18.01
2023-03-17T14:22:57.890Z,18.11
2023-03-17T14:25:30.196Z,18.21
2023-03-17T14:28:02.830Z,17.96
2023-03-17T14:30:36.186Z,18.23
2023-03-17T14:33:08.895Z,18.06
2023-03-17T14:35:42.387Z,18.31
2023-03-17T14:38:22.131Z,18.28
2023-03-17T14:40:52.666Z,18.28
2023-03-17T14:43:25.701Z,18.41
2023-03-17T14:46:01.603Z,18.38
2023-03-17T14:48:34.952Z,18.63
2023-03-17T14:51:08.005Z,18.62
2023-03-17T14:53:41.697Z,18.45
2023-03-17T14:56:12.151Z,18.10
2023-03-17T14:58:47.952Z,18.33
2023-03-17T15:01:20.152Z,18.30
2023-03-17T15:03:59.067Z,18.20
2023-03-17T15:06:30.652Z,18.16
2023-03-17T15:09:02.825Z,17.99
2023-03-17T15:11:41.724Z,18.12
2023-03-17T15:14:21.556Z,18.03
2023-03-17T15:16:53.997Z,17.82
2023-03-17T15:19:28.898Z,17.67
2023-03-17T15:22:00.593Z,17.63
2023-03-17T15:24:44.187Z,17.54
2023-03-17T15:27:17.936Z,17.46
2023-03-17T15:29:50.174Z,17.44
2023-03-17T15:32:21.431Z,17.23
2023-03-17T15:34:52.259Z,17.29
2023-03-17T15:37:24.255Z,17.08
2023-03-17T15:39:55.858Z,16.80
2023-03-17T15:42:28.893Z,17.09
2023-03-17T15:45:02.770Z,16.95
2023-03-17T15:47:35.424Z,16.80
2023-03-17T15:50:15.796Z,16.87
2023-03-17T15:52:46.379Z,16.87
2023-03-17T15:55:23.650Z,16.83
2023-03-17T15:57:56.561Z,16.85
2023-03-17T16:00:31.736Z,16.96
2023-03-17T16:03:07.164Z,16.93
2023-03-17T16:05:38.823Z,16.71
2023-03-17T16:08:09.440Z,16.41
2023-03-17T16:10:39.062Z,16.52
2023-03-17T16:13:09.577Z,16.68
2023-03-17T16:15:44.274Z,16.60
2023-03-17T16:18:18.247Z,16.67
2023-03-17T16:20:50.125Z,16.56
2023-03-17T16:23:21.938Z,16.34
2023-03-17T16:25:53.964Z,16.28
2023-03-17T16:28:27.300Z,16.24
2023-03-17T16:31:01.818Z,16.27
2023-03-17T16:33:34.089Z,15.99
2023-03-17T16:36:04.031Z,15.88
2023-03-17T16:38:36.243Z,15.84
2023-03-17T16:41:11.067Z,15.99
2023-03-17T16:43:40.980Z,15.51
2023-03-17T16:46:15.058Z,15.91
2023-03-17T16:48:44.717Z,15.80
2023-03-17T16:51:14.329Z,15.78
2023-03-17T16:53:44.007Z,15.61
2023-03-17T16:56:18.717Z,15.59
2023-03-17T16:58:49.562Z,15.84
2023-03-17T17:01:24.460Z,15.76
2023-03-17T17:03:54.533Z,15.73
2023-03-17T17:06:26.135Z,15.40
2023-03-17T17:08:55.876Z,15.30
2023-03-17T17:11:25.502Z,15.51
2023-03-17T17:13:55.642Z,15.84
2023-03-17T17:16:31.532Z,15.94
2023-03-17T17:19:02.874Z,15.93
2023-03-17T17:21:33.985Z,16.01
2023-03-17T17:24:03.654Z,15.74
2023-03-17T17:26:33.255Z,16.05
2023-03-17T17:29:02.878Z,16.01
2023-03-17T17:31:35.247Z,15.92
2023-03-17T17:34:04.925Z,16.01
2023-03-17T17:36:35.325Z,15.85
2023-03-17T17:39:06.901Z,15.78
2023-03-17T17:41:37.147Z,15.39
2023-03-17T17:44:06.857Z,15.44
2023-03-17T17:46:39.246Z,15.16
2023-03-17T17:49:09.053Z,15.23
2023-03-17T17:51:38.669Z,14.72
2023-03-17T17:54:10.303Z,14.90
2023-03-17T17:56:46.766Z,14.59
2023-03-17T17:59:17.258Z,14.78
2023-03-17T18:01:49.425Z,14.88
2023-03-17T18:04:19.541Z,14.67
2023-03-17T18:06:50.047Z,14.84
2023-03-17T18:09:20.645Z,14.87
2023-03-17T18:11:50.327Z,14.71
2023-03-17T18:14:21.013Z,14.98
2023-03-17T18:16:54.277Z,14.79
2023-03-17T18:19:24.605Z,14.65
2023-03-17T18:21:54.317Z,14.85
2023-03-17T18:24:24.196Z,14.75
2023-03-17T18:26:53.874Z,14.71
2023-03-17T18:29:23.508Z,14.67
2023-03-17T18:31:57.427Z,14.75
2023-03-17T18:34:32.074Z,14.89
2023-03-17T18:37:04.116Z,14.87
2023-03-17T18:39:34.848Z,14.75
2023-03-17T18:42:05.397Z,15.01
2023-03-17T18:44:35.067Z,15.02
2023-03-17T18:47:07.497Z,15.25
2023-03-17T18:49:37.745Z,15.29
2023-03-17T18:52:07.434Z,15.25
2023-03-17T18:54:37.626Z,15.20
2023-03-17T18:57:07.308Z,15.37
2023-03-17T18:59:37.992Z,15.04
2023-03-17T19:02:11.692Z,15.04
2023-03-17T19:04:46.144Z,15.16
2023-03-17T19:07:16.486Z,15.24
2023-03-17T19:09:46.692Z,15.00
2023-03-17T19:12:16.934Z,15.10
2023-03-17T19:14:46.577Z,15.12
2023-03-17T19:17:19.277Z,15.05
2023-03-17T19:19:50.369Z,15.08
2023-03-17T19:22:20.025Z,15.13
2023-03-17T19:24:50.344Z,15.07
2023-03-17T19:27:20.733Z,14.88
2023-03-17T19:29:51.091Z,15.04
2023-03-17T19:32:23.342Z,14.95
2023-03-17T19:34:53.599Z,14.69
2023-03-17T19:37:23.833Z,14.72
2023-03-17T19:39:53.509Z,14.65
2023-03-17T19:42:23.178Z,14.25
2023-03-17T19:44:53.286Z,14.15
2023-03-17T19:47:25.758Z,14.38
2023-03-17T19:49:55.388Z,14.40
2023-03-17T19:52:27.824Z,14.30
2023-03-17T19:54:58.695Z,14.50
2023-03-17T19:57:28.497Z,14.58
2023-03-17T19:59:58.205Z,14.10
2023-03-17T20:02:30.435Z,13.83
2023-03-17T20:05:00.392Z,13.80
2023-03-17T20:07:30.180Z,13.72
2023-03-17T20:09:59.820Z,13.83
2023-03-17T20:12:29.502Z,13.87
2023-03-17T20:15:00.205Z,13.78
2023-03-17T20:17:32.631Z,13.38
2023-03-17T20:20:03.718Z,13.36
2023-03-17T20:22:33.578Z,13.39
2023-03-17T20:25:03.278Z,13.19
2023-03-17T20:27:35.903Z,13.42
2023-03-17T20:30:07.362Z,13.46
2023-03-17T20:32:39.851Z,13.36
2023-03-17T20:35:10.539Z,13.36
2023-03-17T20:37:40.219Z,13.38
2023-03-17T20:40:11.471Z,13.49
2023-03-17T20:42:41.642Z,13.63
2023-03-17T20:45:11.585Z,13.79
2023-03-17T20:47:43.818Z,13.92
2023-03-17T20:50:14.847Z,13.89
2023-03-17T20:52:45.705Z,14.07
2023-03-17T20:55:16.537Z,14.03
2023-03-17T20:57:48.698Z,14.06
2023-03-17T21:00:21.316Z,13.89
2023-03-17T21:02:53.888Z,13.88
2023-03-17T21:05:27.072Z,14.06
2023-03-17T21:07:57.672Z,13.74
2023-03-17T21:10:27.455Z,13.85
2023-03-17T21:12:57.356Z,14.16
2023-03-17T21:15:27.146Z,14.19
2023-03-17T21:17:59.411Z,14.12
2023-03-17T21:20:29.551Z,14.06
2023-03-17T21:23:00.445Z,13.90
2023-03-17T21:25:30.291Z,14.25
2023-03-17T21:28:00.196Z,14.06
2023-03-17T21:30:30.472Z,14.12
2023-03-17T21:33:03.300Z,14.40
2023-03-17T21:35:35.540Z,14.30
2023-03-17T21:38:05.229Z,14.40
2023-03-17T21:40:35.298Z,14.34
2023-03-17T21:43:05.769Z,14.19
2023-03-17T21:45:35.783Z,14.21
2023-03-17T21:48:08.143Z,14.37
2023-03-17T21:50:38.573Z,14.31
2023-03-17T21:53:09.309Z,14.31
2023-03-17T21:55:39.480Z,14.14
2023-03-17T21:58:09.184Z,14.24
2023-03-17T22:00:45.244Z,14.19
2023-03-17T22:03:18.399Z,14.31
2023-03-17T22:05:48.467Z,14.23
2023-03-17T22:08:18.390Z,14.01
2023-03-17T22:10:48.099Z,13.78
2023-03-17T22:13:17.773Z,14.06
2023-03-17T22:15:47.682Z,14.02
2023-03-17T22:18:20.045Z,13.77
2023-03-17T22:20:50.478Z,13.48
2023-03-17T22:23:20.634Z,13.80
2023-03-17T22:25:50.737Z,13.62
2023-03-17T22:28:21.031Z,13.97
2023-03-17T22:30:51.015Z,13.87
2023-03-17T22:33:23.370Z,13.57
2023-03-17T22:35:53.110Z,13.99
2023-03-17T22:38:24.861Z,13.93
2023-03-17T22:41:03.742Z,14.10
2023-03-17T22:43:33.415Z,13.89
2023-03-17T22:46:03.243Z,14.09
2023-03-17T22:48:36.071Z,14.15
2023-03-17T22:51:07.267Z,14.11
2023-03-17T22:53:37.791Z,13.72
2023-03-17T22:56:08.582Z,14.05
2023-03-17T22:58:38.588Z,13.69
2023-03-17T23:01:09.152Z,13.93
2023-03-17T23:03:42.132Z,13.98
2023-03-17T23:06:13.241Z,13.56
2023-03-17T23:08:45.846Z,13.65
2023-03-17T23:11:22.250Z,13.82
2023-03-17T23:13:53.047Z,13.87
2023-03-17T23:16:23.299Z,13.94
2023-03-17T23:18:55.716Z,13.86
2023-03-17T23:21:28.601Z,13.81
2023-03-17T23:23:58.552Z,13.87
2023-03-17T23:26:28.427Z,13.72
2023-03-17T23:28:58.103Z,13.52
2023-03-17T23:31:27.758Z,13.54
2023-03-17T23:33:59.985Z,13.65
2023-03-17T23:36:29.860Z,13.57
2023-03-17T23:38:59.502Z,13.56
2023-03-17T23:41:29.474Z,13.32
2023-03-17T23:43:59.062Z,13.33
2023-03-17T23:46:29.106Z,13.35
2023-03-17T23:49:01.483Z,13.34
2023-03-17T23:51:31.544Z,13.07
2023-03-17T23:54:01.171Z,13.33
2023-03-17T23:56:30.863Z,13.22
2023-03-17T23:59:00.504Z,13.41
